createdAt,value
2018-08-22T00:02:23.433Z,99971.64
2018-08-22T00:04:52.505Z,99976.48
2018-08-22T00:07:21.473Z,99973.77
2018-08-22T00:09:50.441Z,99974.22
2018-08-22T00:12:19.396Z,99974.22
2018-08-22T00:14:48.348Z,99974.09
2018-08-22T00:17:17.302Z,99976.39
2018-08-22T00:19:46.255Z,99978.36
2018-08-22T00:22:15.261Z,99979.81
2018-08-22T00:24:44.557Z,99980.27
2018-08-22T00:27:13.512Z,99976.13
2018-08-22T00:29:42.531Z,99978.33
2018-08-22T00:32:11.489Z,99987.03
2018-08-22T00:34:40.447Z,99984.53
2018-08-22T00:37:09.391Z,99988.31
2018-08-22T00:39:38.416Z,99985.97
2018-08-22T00:42:07.356Z,99983.91
2018-08-22T00:44:36.303Z,99987.59
2018-08-22T00:47:05.260Z,99983.20
2018-08-22T00:49:34.209Z,99983.94
2018-08-22T00:52:03.182Z,99971.22
2018-08-22T00:54:32.129Z,99976.48
2018-08-22T00:57:01.181Z,99978.69
2018-08-22T00:59:30.193Z,99977.09
2018-08-22T01:01:59.265Z,99976.27
2018-08-22T01:04:28.358Z,99978.45
2018-08-22T01:06:57.310Z,99975.73
2018-08-22T01:09:26.348Z,99973.91
2018-08-22T01:11:55.288Z,99978.35
2018-08-22T01:14:24.366Z,99972.29
2018-08-22T01:16:53.384Z,99982.36
2018-08-22T01:19:22.430Z,99979.89
2018-08-22T01:21:51.527Z,99982.62
2018-08-22T01:24:20.506Z,99985.17
2018-08-22T01:26:49.556Z,99982.21
2018-08-22T01:29:18.513Z,99978.42
2018-08-22T01:31:47.650Z,99985.47
2018-08-22T01:34:16.661Z,99979.37
2018-08-22T01:36:45.734Z,99975.20
2018-08-22T01:39:14.828Z,99980.58
2018-08-22T01:41:43.782Z,99973.64
2018-08-22T01:44:13.201Z,99979.69
2018-08-22T01:46:42.197Z,99981.16
2018-08-22T01:49:11.272Z,99977.84
2018-08-22T01:51:40.247Z,99984.63
2018-08-22T01:54:09.258Z,99978.41
2018-08-22T01:56:38.268Z,99986.76
2018-08-22T01:59:07.275Z,99985.20
2018-08-22T02:01:36.289Z,99983.75
2018-08-22T02:04:05.339Z,99988.75
2018-08-22T02:06:34.400Z,99986.11
2018-08-22T02:09:03.482Z,99980.34
2018-08-22T02:11:32.507Z,99991.83
2018-08-22T02:14:01.472Z,99989.98
2018-08-22T02:16:30.431Z,99991.34
2018-08-22T02:18:59.514Z,99989.37
2018-08-22T02:21:28.589Z,99990.73
2018-08-22T02:23:57.645Z,99991.51
2018-08-22T02:26:26.630Z,99995.59
2018-08-22T02:28:55.574Z,99993.92
2018-08-22T02:31:24.604Z,99995.28
2018-08-22T02:33:53.891Z,99990.98
2018-08-22T02:36:22.973Z,99993.17
2018-08-22T02:38:51.936Z,99999.45
2018-08-22T02:41:20.948Z,99998.89
2018-08-22T02:43:49.990Z,99996.42
2018-08-22T02:46:18.940Z,99995.95
2018-08-22T02:48:52.996Z,99996.79
2018-08-22T02:51:22.024Z,100002.54
2018-08-22T02:53:51.121Z,100004.34
2018-08-22T02:56:20.148Z,100008.67
2018-08-22T02:58:49.187Z,100012.75
2018-08-22T03:01:18.276Z,100012.13
2018-08-22T03:03:47.325Z,100014.02
2018-08-22T03:06:16.300Z,100018.84
2018-08-22T03:08:45.326Z,100019.46
2018-08-22T03:11:14.424Z,100014.23
2018-08-22T03:13:43.505Z,100022.80
2018-08-22T03:16:12.561Z,100024.91
2018-08-22T03:18:41.532Z,100021.56
2018-08-22T03:21:10.488Z,100022.31
2018-08-22T03:23:39.471Z,100029.11
2018-08-22T03:26:08.541Z,100024.44
2018-08-22T03:28:37.669Z,100027.44
2018-08-22T03:31:06.750Z,100034.19
2018-08-22T03:33:35.765Z,100038.17
2018-08-22T03:36:04.807Z,100035.76
2018-08-22T03:38:33.891Z,100043.92
2018-08-22T03:41:02.876Z,100039.53
2018-08-22T03:43:31.883Z,100043.30
2018-08-22T03:46:00.964Z,100049.05
2018-08-22T03:48:29.960Z,100052.61
2018-08-22T03:50:58.944Z,100049.73
2018-08-22T03:53:28.253Z,100052.02
2018-08-22T03:55:57.296Z,100048.03
2018-08-22T03:58:26.271Z,100052.73
2018-08-22T04:00:55.245Z,100052.36
2018-08-22T04:03:24.345Z,100050.34
2018-08-22T04:05:53.313Z,100059.28
2018-08-22T04:08:22.410Z,100057.48
2018-08-22T04:10:51.476Z,100057.94
2018-08-22T04:13:20.494Z,100057.03
2018-08-22T04:15:49.577Z,100060.52
2018-08-22T04:18:18.589Z,100062.14
2018-08-22T04:20:47.688Z,100063.91
2018-08-22T04:23:16.651Z,100064.84
2018-08-22T04:25:45.639Z,100074.59
2018-08-22T04:28:14.674Z,100073.73
2018-08-22T04:30:43.673Z,100080.45
2018-08-22T04:33:12.711Z,100078.28
2018-08-22T04:35:41.718Z,100074.85
2018-08-22T04:38:10.781Z,100081.53
2018-08-22T04:40:39.744Z,100080.80
2018-08-22T04:43:08.713Z,100082.94
2018-08-22T04:45:37.749Z,100082.34
2018-08-22T04:48:06.821Z,100079.01
2018-08-22T04:50:35.850Z,100076.70
2018-08-22T04:53:04.825Z,100079.82
2018-08-22T04:55:33.953Z,100084.13
2018-08-22T04:58:02.984Z,100087.15
2018-08-22T05:00:31.992Z,100084.09
2018-08-22T05:03:00.996Z,100089.22
2018-08-22T05:05:30.005Z,100083.53
2018-08-22T05:07:58.988Z,100093.08
2018-08-22T05:10:27.951Z,100086.66
2018-08-22T05:12:57.103Z,100085.16
2018-08-22T05:15:26.061Z,100092.28
2018-08-22T05:17:55.047Z,100090.19
2018-08-22T05:20:24.079Z,100092.88
2018-08-22T05:22:53.105Z,100091.38
2018-08-22T05:25:22.157Z,100095.78
2018-08-22T05:27:51.168Z,100096.98
2018-08-22T05:30:20.322Z,100105.97
2018-08-22T05:32:49.360Z,100109.98
2018-08-22T05:35:18.341Z,100116.01
2018-08-22T05:37:47.348Z,100123.72
2018-08-22T05:40:16.364Z,100129.63
2018-08-22T05:42:45.350Z,100139.63
2018-08-22T05:45:14.362Z,100126.62
2018-08-22T05:47:43.473Z,100118.37
2018-08-22T05:50:12.494Z,100120.36
2018-08-22T05:52:41.576Z,100135.11
2018-08-22T05:55:10.614Z,100135.75
2018-08-22T05:57:39.774Z,100128.93
2018-08-22T06:00:08.790Z,100139.88
2018-08-22T06:02:37.812Z,100138.05
2018-08-22T06:05:06.893Z,100141.45
2018-08-22T06:07:35.853Z,100140.52
2018-08-22T06:10:05.032Z,100145.61
2018-08-22T06:12:34.054Z,100146.97
2018-08-22T06:15:03.129Z,100146.58
2018-08-22T06:17:32.107Z,100149.17
2018-08-22T06:20:01.211Z,100148.31
2018-08-22T06:22:30.263Z,100140.78
2018-08-22T06:24:59.212Z,100154.88
2018-08-22T06:27:28.164Z,100156.78
2018-08-22T06:29:57.201Z,100165.17
2018-08-22T06:32:26.480Z,100168.52
2018-08-22T06:34:55.459Z,100166.59
2018-08-22T06:37:24.513Z,100166.61
2018-08-22T06:39:53.553Z,100161.95
2018-08-22T06:42:22.557Z,100165.16
2018-08-22T06:44:51.796Z,100161.27
2018-08-22T06:47:20.829Z,100167.72
2018-08-22T06:49:49.795Z,100166.52
2018-08-22T06:52:18.934Z,100157.20
2018-08-22T06:54:47.955Z,100159.42
2018-08-22T06:57:17.082Z,100156.64
2018-08-22T06:59:46.028Z,100155.70
2018-08-22T07:02:15.109Z,100155.48
2018-08-22T07:04:44.157Z,100154.51
2018-08-22T07:07:13.168Z,100160.61
2018-08-22T07:09:42.184Z,100163.44
2018-08-22T07:12:11.259Z,100158.57
2018-08-22T07:14:40.345Z,100155.85
2018-08-22T07:17:09.320Z,100153.55
2018-08-22T07:19:38.328Z,100157.19
2018-08-22T07:22:07.340Z,100159.48
2018-08-22T07:24:36.292Z,100160.05
2018-08-22T07:27:05.365Z,100158.41
2018-08-22T07:29:34.329Z,100153.71
2018-08-22T07:32:03.350Z,100155.48
2018-08-22T07:34:32.328Z,100147.92
2018-08-22T07:37:01.285Z,100152.45
2018-08-22T07:39:30.365Z,100156.67
2018-08-22T07:41:59.557Z,100156.73
2018-08-22T07:44:28.584Z,100158.57
2018-08-22T07:46:57.577Z,100160.98
2018-08-22T07:49:26.539Z,100154.67
2018-08-22T07:51:55.588Z,100152.84
2018-08-22T07:54:29.953Z,100146.77
2018-08-22T07:56:59.073Z,100150.48
2018-08-22T07:59:28.089Z,100146.22
2018-08-22T08:01:57.205Z,100152.13
2018-08-22T08:04:26.119Z,100147.36
2018-08-22T08:06:55.197Z,100147.85
2018-08-22T08:09:24.130Z,100148.19
2018-08-22T08:11:53.205Z,100148.59
2018-08-22T08:14:22.188Z,100145.86
2018-08-22T08:16:51.141Z,100147.78
2018-08-22T08:19:20.159Z,100150.37
2018-08-22T08:21:49.187Z,100146.48
2018-08-22T08:24:18.176Z,100149.08
2018-08-22T08:26:47.173Z,100142.40
2018-08-22T08:29:16.204Z,100146.48
2018-08-22T08:31:45.163Z,100138.34
2018-08-22T08:34:14.288Z,100147.08
2018-08-22T08:36:43.359Z,100143.75
2018-08-22T08:39:12.808Z,100142.96
2018-08-22T08:41:41.917Z,100143.59
2018-08-22T08:44:10.824Z,100133.34
2018-08-22T08:46:39.905Z,100131.39
2018-08-22T08:49:08.934Z,100131.41
2018-08-22T08:51:47.624Z,100131.28
2018-08-22T08:54:16.585Z,100134.59
2018-08-22T08:56:45.587Z,100132.78
2018-08-22T08:59:14.603Z,100134.39
2018-08-22T09:01:43.565Z,100129.49
2018-08-22T09:04:12.533Z,100134.28
2018-08-22T09:06:41.547Z,100122.69
2018-08-22T09:09:11.084Z,100125.25
2018-08-22T09:11:49.022Z,100118.73
2018-08-22T09:14:18.065Z,100125.15
2018-08-22T09:16:47.026Z,100122.80
2018-08-22T09:19:16.030Z,100114.04
2018-08-22T09:21:45.073Z,100120.91
2018-08-22T09:24:14.098Z,100115.61
2018-08-22T09:26:43.451Z,100110.61
2018-08-22T09:29:12.743Z,100112.09
2018-08-22T09:31:41.769Z,100109.67
2018-08-22T09:34:10.797Z,100105.56
2018-08-22T09:36:39.756Z,100104.83
2018-08-22T09:39:11.999Z,100097.60
2018-08-22T09:41:40.984Z,100099.30
2018-08-22T09:44:10.060Z,100104.41
2018-08-22T09:46:39.915Z,100098.24
2018-08-22T09:49:09.371Z,100094.39
2018-08-22T09:51:38.393Z,100095.12
2018-08-22T09:54:07.352Z,100093.30
2018-08-22T09:56:36.538Z,100087.39
2018-08-22T09:59:05.562Z,100082.06
2018-08-22T10:01:39.658Z,100084.35
2018-08-22T10:04:08.660Z,100078.70
2018-08-22T10:06:43.962Z,100076.55
2018-08-22T10:09:21.720Z,100076.16
2018-08-22T10:11:50.751Z,100070.81
2018-08-22T10:14:19.760Z,100068.02
2018-08-22T10:16:48.786Z,100070.17
2018-08-22T10:19:17.813Z,100063.81
2018-08-22T10:21:46.845Z,100053.57
2018-08-22T10:24:15.944Z,100055.49
2018-08-22T10:26:44.969Z,100055.49
2018-08-22T10:29:14.002Z,100056.37
2018-08-22T10:31:43.070Z,100060.52
2018-08-22T10:34:12.055Z,100054.53
2018-08-22T10:36:41.093Z,100053.98
2018-08-22T10:39:10.614Z,100048.81
2018-08-22T10:41:39.621Z,100052.22
2018-08-22T10:44:08.580Z,100049.38
2018-08-22T10:46:37.533Z,100049.25
2018-08-22T10:49:06.713Z,100048.00
2018-08-22T10:51:35.731Z,100036.36
2018-08-22T10:54:04.825Z,100034.27
2018-08-22T10:56:33.812Z,100030.00
2018-08-22T10:59:02.878Z,100031.73
2018-08-22T11:01:31.976Z,100019.66
2018-08-22T11:04:01.046Z,100018.36
2018-08-22T11:06:30.070Z,100018.80
2018-08-22T11:08:59.098Z,100022.10
2018-08-22T11:11:28.057Z,100016.45
2018-08-22T11:13:57.205Z,100015.56
2018-08-22T11:16:26.162Z,100012.34
2018-08-22T11:18:55.168Z,100003.62
2018-08-22T11:21:35.017Z,100015.80
2018-08-22T11:24:15.033Z,100009.91
2018-08-22T11:26:54.918Z,100004.17
2018-08-22T11:29:34.772Z,100003.83
2018-08-22T11:32:14.712Z,100003.75
2018-08-22T11:34:45.016Z,100000.19
2018-08-22T11:37:15.203Z,99995.24
2018-08-22T11:39:46.629Z,99986.29
2018-08-22T11:42:15.670Z,99979.91
2018-08-22T11:44:44.689Z,99982.90
2018-08-22T11:47:13.651Z,99973.24
2018-08-22T11:49:42.654Z,99970.06
2018-08-22T11:52:11.631Z,99967.28
2018-08-22T11:54:40.572Z,99973.00
2018-08-22T11:57:09.661Z,99971.80
2018-08-22T11:59:38.653Z,99967.16
2018-08-22T12:02:07.683Z,99964.91
2018-08-22T12:04:36.656Z,99964.47
2018-08-22T12:07:05.714Z,99966.50
2018-08-22T12:09:34.739Z,99964.17
2018-08-22T12:12:03.731Z,99959.69
2018-08-22T12:14:32.706Z,99961.53
2018-08-22T12:17:01.664Z,99957.91
2018-08-22T12:19:30.668Z,99957.16
2018-08-22T12:21:59.753Z,99952.02
2018-08-22T12:24:28.704Z,99944.39
2018-08-22T12:26:57.695Z,99943.09
2018-08-22T12:29:26.763Z,99935.72
2018-08-22T12:31:55.761Z,99932.48
2018-08-22T12:34:24.857Z,99940.19
2018-08-22T12:36:53.807Z,99943.05
2018-08-22T12:39:22.866Z,99928.97
2018-08-22T12:41:51.828Z,99931.86
2018-08-22T12:44:20.816Z,99930.16
2018-08-22T12:46:49.882Z,99924.50
2018-08-22T12:49:18.835Z,99923.88
2018-08-22T12:51:47.793Z,99924.39
2018-08-22T12:54:16.773Z,99922.89
2018-08-22T12:56:45.858Z,99925.11
2018-08-22T12:59:14.879Z,99924.20
2018-08-22T13:01:43.953Z,99923.59
2018-08-22T13:04:12.963Z,99918.68
2018-08-22T13:06:41.924Z,99913.62
2018-08-22T13:09:11.736Z,99917.89
2018-08-22T13:11:41.024Z,99911.06
2018-08-22T13:14:10.105Z,99908.40
2018-08-22T13:16:39.111Z,99902.67
2018-08-22T13:19:08.155Z,99907.69
2018-08-22T13:21:37.088Z,99913.73
2018-08-22T13:24:06.190Z,99914.12
2018-08-22T13:26:35.293Z,99914.97
2018-08-22T13:29:04.231Z,99911.53
2018-08-22T13:31:33.236Z,99906.41
2018-08-22T13:34:02.180Z,99906.61
2018-08-22T13:36:31.232Z,99903.86
2018-08-22T13:39:00.220Z,99910.81
2018-08-22T13:41:29.196Z,99915.55
2018-08-22T13:43:58.363Z,99921.69
2018-08-22T13:46:27.384Z,99923.14
2018-08-22T13:48:56.417Z,99921.55
2018-08-22T13:51:25.474Z,99915.31
2018-08-22T13:53:54.525Z,99918.34
2018-08-22T13:56:23.659Z,99918.64
2018-08-22T13:58:52.685Z,99912.11
2018-08-22T14:01:21.782Z,99906.15
2018-08-22T14:03:50.806Z,99903.37
2018-08-22T14:06:19.857Z,99899.33
2018-08-22T14:08:48.893Z,99899.27
2018-08-22T14:11:17.891Z,99898.77
2018-08-22T14:13:47.020Z,99900.22
2018-08-22T14:16:16.026Z,99889.45
2018-08-22T14:18:45.029Z,99897.69
2018-08-22T14:21:13.999Z,99890.28
2018-08-22T14:23:42.969Z,99900.92
2018-08-22T14:26:12.167Z,99888.78
2018-08-22T14:28:41.111Z,99893.33
2018-08-22T14:31:10.331Z,99901.95
2018-08-22T14:33:39.670Z,99898.93
2018-08-22T14:36:09.018Z,99902.42
2018-08-22T14:38:39.968Z,99895.28
2018-08-22T14:41:09.250Z,99893.42
2018-08-22T14:43:39.169Z,99891.05
2018-08-22T14:46:08.541Z,99886.87
2018-08-22T14:48:37.795Z,99886.83
2018-08-22T14:51:07.154Z,99888.08
2018-08-22T14:53:36.432Z,99890.53
2018-08-22T14:56:05.822Z,99880.19
2018-08-22T14:58:35.031Z,99892.25
2018-08-22T15:01:04.300Z,99894.55
2018-08-22T15:03:33.702Z,99890.28
2018-08-22T15:06:02.850Z,99895.34
2018-08-22T15:08:32.073Z,99891.97
2018-08-22T15:11:01.283Z,99885.17
2018-08-22T15:13:30.541Z,99892.36
2018-08-22T15:15:59.793Z,99886.03
2018-08-22T15:18:29.067Z,99888.30
2018-08-22T15:20:58.304Z,99881.80
2018-08-22T15:23:27.625Z,99883.92
2018-08-22T15:25:56.997Z,99883.57
2018-08-22T15:28:26.275Z,99877.59
2018-08-22T15:30:55.527Z,99869.22
2018-08-22T15:33:24.706Z,99876.73
2018-08-22T15:35:53.927Z,99874.56
2018-08-22T15:38:23.166Z,99878.62
2018-08-22T15:40:52.420Z,99877.72
2018-08-22T15:43:21.722Z,99882.45
2018-08-22T15:45:50.934Z,99880.05
2018-08-22T15:48:20.204Z,99877.28
2018-08-22T15:50:49.483Z,99861.86
2018-08-22T15:53:18.831Z,99883.95
2018-08-22T15:55:48.011Z,99880.39
2018-08-22T15:58:17.289Z,99879.93
2018-08-22T16:00:50.473Z,99869.54
2018-08-22T16:03:19.889Z,99879.39
2018-08-22T16:05:49.996Z,99878.92
2018-08-22T16:08:20.706Z,99877.59
2018-08-22T16:10:50.063Z,99874.00
2018-08-22T16:13:24.359Z,99849.16
2018-08-22T16:15:55.969Z,99882.19
2018-08-22T16:18:25.269Z,99881.69
2018-08-22T16:20:56.730Z,99884.30
2018-08-22T16:23:28.120Z,99886.54
2018-08-22T16:25:58.642Z,99885.98
2018-08-22T16:28:28.608Z,99882.94
2018-08-22T16:30:58.964Z,99886.58
2018-08-22T16:33:28.271Z,99888.45
2018-08-22T16:35:57.535Z,99885.80
2018-08-22T16:38:26.864Z,99891.73
2018-08-22T16:40:56.122Z,99896.53
2018-08-22T16:43:39.416Z,99901.60
2018-08-22T16:46:10.537Z,99905.55
2018-08-22T16:48:40.564Z,99914.52
2018-08-22T16:51:09.832Z,99910.25
2018-08-22T16:53:39.031Z,99904.28
2018-08-22T16:56:08.263Z,99904.97
2018-08-22T16:58:37.399Z,99898.67
2018-08-22T17:01:06.783Z,99903.18
2018-08-22T17:03:36.018Z,99905.51
2018-08-22T17:06:12.235Z,99906.12
2018-08-22T17:08:41.551Z,99915.27
2018-08-22T17:11:12.516Z,99913.70
2018-08-22T17:13:45.413Z,99923.09
2018-08-22T17:16:14.768Z,99914.27
2018-08-22T17:18:44.020Z,99913.47
2018-08-22T17:21:20.416Z,99920.41
2018-08-22T17:23:50.099Z,99915.45
2018-08-22T17:26:20.576Z,99920.45
2018-08-22T17:28:52.553Z,99923.75
2018-08-22T17:31:22.850Z,99933.69
2018-08-22T17:33:54.944Z,99944.99
2018-08-22T17:36:24.331Z,99943.06
2018-08-22T17:38:55.243Z,99949.68
2018-08-22T17:41:25.981Z,99949.44
2018-08-22T17:44:05.470Z,99959.09
2018-08-22T17:46:48.276Z,99961.27
2018-08-22T17:49:17.659Z,99974.25
2018-08-22T17:51:57.073Z,99978.91
2018-08-22T17:54:26.848Z,99993.56
2018-08-22T17:57:08.276Z,99996.05
2018-08-22T17:59:37.612Z,100010.67
2018-08-22T18:02:06.912Z,100008.16
2018-08-22T18:04:47.471Z,100000.74
2018-08-22T18:07:17.446Z,100007.34
2018-08-22T18:09:47.847Z,100002.66
2018-08-22T18:12:17.724Z,100003.78
2018-08-22T18:14:47.058Z,100004.86
2018-08-22T18:17:16.683Z,100007.91
2018-08-22T18:19:46.286Z,100014.78
2018-08-22T18:22:15.599Z,100019.47
2018-08-22T18:24:51.757Z,100013.41
2018-08-22T18:27:21.148Z,100011.46
2018-08-22T18:29:50.563Z,100004.83
2018-08-22T18:32:19.848Z,100013.90
2018-08-22T18:35:18.196Z,100010.58
2018-08-22T18:37:47.550Z,100001.49
2018-08-22T18:40:18.352Z,99999.86
2018-08-22T18:42:49.725Z,100008.09
2018-08-22T18:45:19.473Z,100007.83
2018-08-22T18:47:48.870Z,100003.69
2018-08-22T18:50:18.514Z,100004.53
2018-08-22T18:52:52.163Z,100005.06
2018-08-22T18:55:25.188Z,100005.89
2018-08-22T18:57:55.135Z,100009.48
2018-08-22T19:00:24.809Z,100008.38
2018-08-22T19:02:55.725Z,100010.83
2018-08-22T19:05:32.662Z,100016.84
2018-08-22T19:08:11.807Z,100019.55
2018-08-22T19:10:42.402Z,100027.23
2018-08-22T19:13:16.678Z,100023.87
2018-08-22T19:15:51.911Z,100029.86
2018-08-22T19:18:21.380Z,100031.78
2018-08-22T19:20:53.420Z,100035.05
2018-08-22T19:23:22.901Z,100030.94
2018-08-22T19:25:53.092Z,100030.36
2018-08-22T19:28:22.447Z,100029.23
2018-08-22T19:30:51.926Z,100031.92
2018-08-22T19:33:23.198Z,100030.77
2018-08-22T19:35:52.531Z,100035.36
2018-08-22T19:38:23.210Z,100033.42
2018-08-22T19:40:52.638Z,100034.45
2018-08-22T19:43:22.068Z,100039.33
2018-08-22T19:45:51.388Z,100043.68
2018-08-22T19:48:20.714Z,100040.33
2018-08-22T19:50:50.080Z,100043.85
2018-08-22T19:53:19.411Z,100043.73
2018-08-22T19:55:48.706Z,100046.70
2018-08-22T19:58:22.074Z,100060.11
2018-08-22T20:00:51.373Z,100053.17
2018-08-22T20:03:25.030Z,100047.58
2018-08-22T20:05:55.550Z,100049.20
2018-08-22T20:08:39.971Z,100041.73
2018-08-22T20:11:09.326Z,100043.57
2018-08-22T20:13:49.487Z,100038.04
2018-08-22T20:16:19.998Z,100045.62
2018-08-22T20:18:51.197Z,100046.41
2018-08-22T20:21:25.423Z,100045.04
2018-08-22T20:23:55.502Z,100051.81
2018-08-22T20:26:25.718Z,100056.44
2018-08-22T20:28:56.226Z,100056.09
2018-08-22T20:31:25.502Z,100049.16
2018-08-22T20:34:03.583Z,100048.56
2018-08-22T20:36:33.028Z,100048.73
2018-08-22T20:39:07.148Z,100052.80
2018-08-22T20:41:37.063Z,100053.87
2018-08-22T20:44:09.576Z,100050.89
2018-08-22T20:46:39.027Z,100055.00
2018-08-22T20:49:08.291Z,100056.12
2018-08-22T20:51:37.567Z,100057.25
2018-08-22T20:54:07.761Z,100052.94
2018-08-22T20:56:38.800Z,100054.94
2018-08-22T20:59:08.072Z,100060.76
2018-08-22T21:01:37.374Z,100062.21
2018-08-22T21:04:06.633Z,100068.00
2018-08-22T21:06:35.966Z,100066.12
2018-08-22T21:09:06.272Z,100065.29
2018-08-22T21:11:36.172Z,100074.31
2018-08-22T21:14:05.486Z,100075.34
2018-08-22T21:16:34.844Z,100073.65
2018-08-22T21:19:04.147Z,100068.06
2018-08-22T21:21:33.428Z,100075.95
2018-08-22T21:24:02.761Z,100071.41
2018-08-22T21:26:39.397Z,100069.81
2018-08-22T21:29:08.788Z,100073.53
2018-08-22T21:31:38.067Z,100073.98
2018-08-22T21:34:13.471Z,100070.00
2018-08-22T21:36:45.266Z,100067.40
2018-08-22T21:39:19.540Z,100064.01
2018-08-22T21:41:49.075Z,100066.09
2018-08-22T21:44:19.495Z,100078.33
2018-08-22T21:46:58.180Z,100070.81
2018-08-22T21:49:27.481Z,100072.60
2018-08-22T21:51:58.803Z,100070.55
2018-08-22T21:54:28.188Z,100074.17
2018-08-22T21:56:57.228Z,100077.56
2018-08-22T21:59:26.194Z,100080.05
2018-08-22T22:02:00.289Z,100076.05
2018-08-22T22:04:35.436Z,100079.24
2018-08-22T22:07:05.543Z,100070.56
2018-08-22T22:09:35.121Z,100074.87
2018-08-22T22:12:04.685Z,100079.70
2018-08-22T22:14:34.748Z,100077.41
2018-08-22T22:17:04.615Z,100079.22
2018-08-22T22:19:34.692Z,100077.20
2018-08-22T22:22:04.201Z,100079.01
2018-08-22T22:24:33.284Z,100073.63
2018-08-22T22:27:02.224Z,100065.92
2018-08-22T22:29:32.672Z,100072.16
2018-08-22T22:32:01.623Z,100072.94
2018-08-22T22:34:30.652Z,100072.30
2018-08-22T22:36:59.584Z,100064.52
2018-08-22T22:39:36.519Z,100065.48
2018-08-22T22:42:16.733Z,100063.69
2018-08-22T22:44:47.480Z,100060.27
2018-08-22T22:47:21.636Z,100058.80
2018-08-22T22:49:51.473Z,100057.59
2018-08-22T22:52:41.916Z,100064.20
2018-08-22T22:55:11.488Z,100061.83
2018-08-22T22:57:41.697Z,100061.42
2018-08-22T23:00:12.508Z,100058.22
2018-08-22T23:02:41.827Z,100061.91
2018-08-22T23:05:10.856Z,100061.27
2018-08-22T23:07:41.948Z,100065.29
2018-08-22T23:10:12.245Z,100057.75
2018-08-22T23:12:41.817Z,100055.06
2018-08-22T23:15:13.669Z,100050.83
2018-08-22T23:17:42.932Z,100055.38
2018-08-22T23:20:24.696Z,100054.97
2018-08-22T23:22:53.755Z,100055.72
2018-08-22T23:25:22.751Z,100054.06
2018-08-22T23:27:51.691Z,100053.80
2018-08-22T23:30:25.501Z,100049.58
2018-08-22T23:32:54.451Z,100052.46
2018-08-22T23:35:27.068Z,100054.88
2018-08-22T23:37:58.206Z,100050.75
2018-08-22T23:40:28.337Z,100050.83
2018-08-22T23:42:57.399Z,100052.98
2018-08-22T23:45:26.425Z,100053.51
2018-08-22T23:47:55.441Z,100053.63
2018-08-22T23:50:26.701Z,100057.81
2018-08-22T23:52:56.423Z,100050.39
2018-08-22T23:55:26.329Z,100044.20
2018-08-22T23:57:56.574Z,100046.24
